sensor_id;sensor_type;location;lat;lon;timestamp;pressure;altitude;pressure_sealevel;temperature;humidity
21838;BME280;11081;45.946;6.140;2023-02-18T00:00:38;96481.22;;;8.70;76.16
21838;BME280;11081;45.946;6.140;2023-02-18T00:03:06;96478.91;;;8.75;76.10
21838;BME280;11081;45.946;6.140;2023-02-18T00:05:34;96476.94;;;8.77;76.31
21838;BME280;11081;45.946;6.140;2023-02-18T00:08:02;96470.13;;;8.76;75.37
21838;BME280;11081;45.946;6.140;2023-02-18T00:10:30;96469.31;;;8.75;75.71
21838;BME280;11081;45.946;6.140;2023-02-18T00:12:59;96467.22;;;8.71;75.86
21838;BME280;11081;45.946;6.140;2023-02-18T00:15:27;96472.31;;;8.64;75.68
21838;BME280;11081;45.946;6.140;2023-02-18T00:17:55;96469.44;;;8.59;75.91
21838;BME280;11081;45.946;6.140;2023-02-18T00:20:23;96465.41;;;8.57;76.14
21838;BME280;11081;45.946;6.140;2023-02-18T00:22:51;96461.84;;;8.49;76.31
21838;BME280;11081;45.946;6.140;2023-02-18T00:25:19;96464.81;;;8.46;76.27
21838;BME280;11081;45.946;6.140;2023-02-18T00:27:47;96463.28;;;8.52;76.17
21838;BME280;11081;45.946;6.140;2023-02-18T00:30:17;96449.78;;;8.57;76.43
21838;BME280;11081;45.946;6.140;2023-02-18T00:32:45;96447.22;;;8.48;76.05
21838;BME280;11081;45.946;6.140;2023-02-18T00:35:13;96449.56;;;8.43;76.16
21838;BME280;11081;45.946;6.140;2023-02-18T00:37:43;96448.28;;;8.39;76.11
21838;BME280;11081;45.946;6.140;2023-02-18T00:40:11;96451.88;;;8.38;76.43
21838;BME280;11081;45.946;6.140;2023-02-18T00:42:39;96460.50;;;8.39;76.53
21838;BME280;11081;45.946;6.140;2023-02-18T00:45:08;96454.66;;;8.37;76.03
21838;BME280;11081;45.946;6.140;2023-02-18T00:47:37;96458.06;;;8.29;76.47
21838;BME280;11081;45.946;6.140;2023-02-18T00:50:07;96460.50;;;8.31;77.08
21838;BME280;11081;45.946;6.140;2023-02-18T00:52:35;96454.16;;;8.33;76.88
21838;BME280;11081;45.946;6.140;2023-02-18T00:55:03;96459.38;;;8.33;76.60
21838;BME280;11081;45.946;6.140;2023-02-18T00:57:32;96454.84;;;8.27;76.83
21838;BME280;11081;45.946;6.140;2023-02-18T01:00:00;96456.81;;;8.25;76.43
21838;BME280;11081;45.946;6.140;2023-02-18T01:02:28;96459.13;;;8.20;76.54
21838;BME280;11081;45.946;6.140;2023-02-18T01:04:58;96450.50;;;8.19;77.07
21838;BME280;11081;45.946;6.140;2023-02-18T01:07:26;96449.06;;;8.17;76.98
21838;BME280;11081;45.946;6.140;2023-02-18T01:09:54;96443.88;;;8.17;77.40
21838;BME280;11081;45.946;6.140;2023-02-18T01:12:22;96452.31;;;8.19;77.32
21838;BME280;11081;45.946;6.140;2023-02-18T01:14:50;96451.94;;;8.22;77.60
21838;BME280;11081;45.946;6.140;2023-02-18T01:17:18;96444.78;;;8.24;77.22
21838;BME280;11081;45.946;6.140;2023-02-18T01:19:46;96439.59;;;8.24;77.54
21838;BME280;11081;45.946;6.140;2023-02-18T01:22:16;96444.78;;;8.24;77.26
21838;BME280;11081;45.946;6.140;2023-02-18T01:24:44;96448.38;;;8.23;77.47
21838;BME280;11081;45.946;6.140;2023-02-18T01:27:12;96445.13;;;8.21;77.03
21838;BME280;11081;45.946;6.140;2023-02-18T01:29:40;96444.22;;;8.14;77.45
21838;BME280;11081;45.946;6.140;2023-02-18T01:32:08;96445.84;;;8.15;77.41
21838;BME280;11081;45.946;6.140;2023-02-18T01:34:36;96447.44;;;8.16;77.07
21838;BME280;11081;45.946;6.140;2023-02-18T01:37:04;96444.53;;;8.11;77.52
21838;BME280;11081;45.946;6.140;2023-02-18T01:39:35;96441.94;;;8.11;77.26
21838;BME280;11081;45.946;6.140;2023-02-18T01:42:04;96439.34;;;8.11;77.40
21838;BME280;11081;45.946;6.140;2023-02-18T01:44:33;96438.06;;;8.07;76.76
21838;BME280;11081;45.946;6.140;2023-02-18T01:47:01;96438.41;;;8.04;77.26
21838;BME280;11081;45.946;6.140;2023-02-18T01:49:31;96433.56;;;8.01;77.42
21838;BME280;11081;45.946;6.140;2023-02-18T01:52:02;96440.09;;;7.97;77.35
21838;BME280;11081;45.946;6.140;2023-02-18T01:54:33;96435.41;;;7.92;77.67
21838;BME280;11081;45.946;6.140;2023-02-18T01:57:06;96422.56;;;7.90;78.08
21838;BME280;11081;45.946;6.140;2023-02-18T01:59:39;96434.63;;;7.91;77.60
21838;BME280;11081;45.946;6.140;2023-02-18T02:02:10;96432.66;;;7.93;77.96
21838;BME280;11081;45.946;6.140;2023-02-18T02:04:40;96431.03;;;7.92;77.84
21838;BME280;11081;45.946;6.140;2023-02-18T02:07:09;96429.41;;;7.91;78.31
21838;BME280;11081;45.946;6.140;2023-02-18T02:09:38;96419.34;;;7.88;77.98
21838;BME280;11081;45.946;6.140;2023-02-18T02:12:22;96424.25;;;7.83;78.52
21838;BME280;11081;45.946;6.140;2023-02-18T02:15:07;96423.72;;;7.88;78.34
21838;BME280;11081;45.946;6.140;2023-02-18T02:17:45;96422.91;;;7.87;77.84
21838;BME280;11081;45.946;6.140;2023-02-18T02:20:59;96419.97;;;7.90;78.15
21838;BME280;11081;45.946;6.140;2023-02-18T02:27:09;96401.50;;;7.85;78.59
21838;BME280;11081;45.946;6.140;2023-02-18T02:33:23;96401.56;;;7.77;78.91
21838;BME280;11081;45.946;6.140;2023-02-18T02:35:59;96406.41;;;7.80;78.16
21838;BME280;11081;45.946;6.140;2023-02-18T02:38:36;96405.59;;;7.80;77.85
21838;BME280;11081;45.946;6.140;2023-02-18T02:41:14;96399.94;;;7.76;78.70
21838;BME280;11081;45.946;6.140;2023-02-18T02:43:55;96405.13;;;7.76;78.74
21838;BME280;11081;45.946;6.140;2023-02-18T02:46:34;96397.81;;;7.80;78.33
21838;BME280;11081;45.946;6.140;2023-02-18T02:49:09;96396.34;;;7.77;78.58
21838;BME280;11081;45.946;6.140;2023-02-18T02:51:45;96399.94;;;7.76;78.31
21838;BME280;11081;45.946;6.140;2023-02-18T02:54:20;96400.59;;;7.70;78.71
21838;BME280;11081;45.946;6.140;2023-02-18T02:56:48;96404.53;;;7.66;79.35
21838;BME280;11081;45.946;6.140;2023-02-18T02:59:23;96411.34;;;7.67;79.30
21838;BME280;11081;45.946;6.140;2023-02-18T03:02:04;96411.00;;;7.70;79.51
21838;BME280;11081;45.946;6.140;2023-02-18T03:04:47;96394.78;;;7.68;80.04
21838;BME280;11081;45.946;6.140;2023-02-18T03:07:33;96402.56;;;7.68;80.09
21838;BME280;11081;45.946;6.140;2023-02-18T03:10:23;96397.38;;;7.68;80.75
21838;BME280;11081;45.946;6.140;2023-02-18T03:12:58;96398.19;;;7.69;79.86
21838;BME280;11081;45.946;6.140;2023-02-18T03:15:36;96398.19;;;7.69;79.89
21838;BME280;11081;45.946;6.140;2023-02-18T03:18:14;96393.78;;;7.69;79.84
21838;BME280;11081;45.946;6.140;2023-02-18T03:20:50;96386.66;;;7.71;80.14
21838;BME280;11081;45.946;6.140;2023-02-18T03:23:26;96402.25;;;7.71;79.72
21838;BME280;11081;45.946;6.140;2023-02-18T03:25:55;96400.28;;;7.73;79.42
21838;BME280;11081;45.946;6.140;2023-02-18T03:28:27;96398.66;;;7.72;79.62
21838;BME280;11081;45.946;6.140;2023-02-18T03:31:02;96399.97;;;7.68;79.61
21838;BME280;11081;45.946;6.140;2023-02-18T03:33:35;96408.09;;;7.65;79.51
21838;BME280;11081;45.946;6.140;2023-02-18T03:36:05;96407.31;;;7.64;79.75
21838;BME280;11081;45.946;6.140;2023-02-18T03:38:39;96410.06;;;7.63;79.56
21838;BME280;11081;45.946;6.140;2023-02-18T03:41:09;96405.91;;;7.54;79.56
21838;BME280;11081;45.946;6.140;2023-02-18T03:43:39;96404.28;;;7.53;79.68
21838;BME280;11081;45.946;6.140;2023-02-18T03:46:07;96399.44;;;7.50;79.71
21838;BME280;11081;45.946;6.140;2023-02-18T03:48:36;96391.47;;;7.51;79.51
21838;BME280;11081;45.946;6.140;2023-02-18T03:51:04;96390.97;;;7.48;79.63
21838;BME280;11081;45.946;6.140;2023-02-18T03:53:32;96396.19;;;7.48;79.88
21838;BME280;11081;45.946;6.140;2023-02-18T03:56:02;96394.56;;;7.47;79.92
21838;BME280;11081;45.946;6.140;2023-02-18T03:58:30;96390.53;;;7.44;79.95
21838;BME280;11081;45.946;6.140;2023-02-18T04:00:58;96396.06;;;7.41;80.52
21838;BME280;11081;45.946;6.140;2023-02-18T04:03:26;96390.69;;;7.43;80.32
21838;BME280;11081;45.946;6.140;2023-02-18T04:05:54;96394.44;;;7.40;80.39
21838;BME280;11081;45.946;6.140;2023-02-18T04:08:22;96394.44;;;7.40;80.68
21838;BME280;11081;45.946;6.140;2023-02-18T04:10:50;96390.06;;;7.41;80.34
21838;BME280;11081;45.946;6.140;2023-02-18T04:13:21;96392.66;;;7.41;80.54
21838;BME280;11081;45.946;6.140;2023-02-18T04:15:50;96392.66;;;7.41;80.03
21838;BME280;11081;45.946;6.140;2023-02-18T04:18:18;96393.97;;;7.37;80.38
21838;BME280;11081;45.946;6.140;2023-02-18T04:20:47;96397.56;;;7.36;80.21
21838;BME280;11081;45.946;6.140;2023-02-18T04:23:16;96395.13;;;7.34;80.61
21838;BME280;11081;45.946;6.140;2023-02-18T04:25:44;96397.56;;;7.36;80.75
21838;BME280;11081;45.946;6.140;2023-02-18T04:28:13;96396.56;;;7.37;80.81
21838;BME280;11081;45.946;6.140;2023-02-18T04:30:45;96394.59;;;7.39;80.30
21838;BME280;11081;45.946;6.140;2023-02-18T04:33:13;96407.13;;;7.35;80.65
21838;BME280;11081;45.946;6.140;2023-02-18T04:35:41;96410.19;;;7.39;80.25
21838;BME280;11081;45.946;6.140;2023-02-18T04:38:10;96414.41;;;7.40;80.47
21838;BME280;11081;45.946;6.140;2023-02-18T04:40:38;96421.56;;;7.38;80.39
21838;BME280;11081;45.946;6.140;2023-02-18T04:43:06;96413.25;;;7.42;80.50
21838;BME280;11081;45.946;6.140;2023-02-18T04:45:34;96414.88;;;7.43;80.44
21838;BME280;11081;45.946;6.140;2023-02-18T04:48:04;96414.41;;;7.40;81.09
21838;BME280;11081;45.946;6.140;2023-02-18T04:50:34;96416.03;;;7.41;81.03
21838;BME280;11081;45.946;6.140;2023-02-18T04:53:02;96410.50;;;7.44;80.99
21838;BME280;11081;45.946;6.140;2023-02-18T04:55:30;96410.50;;;7.44;81.12
21838;BME280;11081;45.946;6.140;2023-02-18T04:57:58;96403.34;;;7.46;81.27
21838;BME280;11081;45.946;6.140;2023-02-18T05:00:26;96396.19;;;7.48;81.21
21838;BME280;11081;45.946;6.140;2023-02-18T05:02:55;96396.84;;;7.50;80.74
21838;BME280;11081;45.946;6.140;2023-02-18T05:05:24;96408.53;;;7.46;80.88
21838;BME280;11081;45.946;6.140;2023-02-18T05:07:52;96401.72;;;7.45;81.10
21838;BME280;11081;45.946;6.140;2023-02-18T05:10:20;96401.38;;;7.48;80.73
21838;BME280;11081;45.946;6.140;2023-02-18T05:12:48;96402.03;;;7.50;80.59
21838;BME280;11081;45.946;6.140;2023-02-18T05:15:16;96402.69;;;7.44;80.97
21838;BME280;11081;45.946;6.140;2023-02-18T05:17:44;96401.72;;;7.45;80.99
21838;BME280;11081;45.946;6.140;2023-02-18T05:20:12;96404.63;;;7.50;80.63
21838;BME280;11081;45.946;6.140;2023-02-18T05:22:42;96393.94;;;7.45;80.96
21838;BME280;11081;45.946;6.140;2023-02-18T05:25:10;96396.88;;;7.42;81.02
21838;BME280;11081;45.946;6.140;2023-02-18T05:27:38;96390.41;;;7.38;81.30
21838;BME280;11081;45.946;6.140;2023-02-18T05:30:07;96404.03;;;7.40;81.25
21838;BME280;11081;45.946;6.140;2023-02-18T05:32:35;96396.41;;;7.38;81.02
21838;BME280;11081;45.946;6.140;2023-02-18T05:35:03;96394.44;;;7.40;81.11
21838;BME280;11081;45.946;6.140;2023-02-18T05:37:31;96395.59;;;7.38;80.96
21838;BME280;11081;45.946;6.140;2023-02-18T05:40:01;96393.50;;;7.33;81.00
21838;BME280;11081;45.946;6.140;2023-02-18T05:42:29;96388.78;;;7.37;80.78
21838;BME280;11081;45.946;6.140;2023-02-18T05:44:58;96388.44;;;7.40;80.55
21838;BME280;11081;45.946;6.140;2023-02-18T05:47:26;96381.63;;;7.39;80.41
21838;BME280;11081;45.946;6.140;2023-02-18T05:49:54;96391.38;;;7.37;80.63
21838;BME280;11081;45.946;6.140;2023-02-18T05:52:22;96388.31;;;7.33;80.84
21838;BME280;11081;45.946;6.140;2023-02-18T05:54:50;96389.13;;;7.33;80.88
21838;BME280;11081;45.946;6.140;2023-02-18T05:57:19;96389.47;;;7.30;81.08
21838;BME280;11081;45.946;6.140;2023-02-18T05:59:48;96394.00;;;7.28;81.04
21838;BME280;11081;45.946;6.140;2023-02-18T06:02:16;96383.59;;;7.28;81.49
21838;BME280;11081;45.946;6.140;2023-02-18T06:04:44;96385.91;;;7.23;81.21
21838;BME280;11081;45.946;6.140;2023-02-18T06:07:12;96382.03;;;7.19;81.53
21838;BME280;11081;45.946;6.140;2023-02-18T06:09:40;96376.84;;;7.19;81.32
21838;BME280;11081;45.946;6.140;2023-02-18T06:12:08;96369.06;;;7.19;80.84
21838;BME280;11081;45.946;6.140;2023-02-18T06:14:37;96386.75;;;7.16;81.21
21838;BME280;11081;45.946;6.140;2023-02-18T06:17:08;96376.84;;;7.19;81.43
21838;BME280;11081;45.946;6.140;2023-02-18T06:19:36;96375.06;;;7.20;81.13
21838;BME280;11081;45.946;6.140;2023-02-18T06:22:04;96376.72;;;7.13;81.03
21838;BME280;11081;45.946;6.140;2023-02-18T06:24:33;96382.72;;;7.05;81.45
21838;BME280;11081;45.946;6.140;2023-02-18T06:27:01;96381.75;;;7.06;81.26
21838;BME280;11081;45.946;6.140;2023-02-18T06:29:29;96391.47;;;7.12;80.71
21838;BME280;11081;45.946;6.140;2023-02-18T06:31:59;96383.72;;;7.04;81.38
21838;BME280;11081;45.946;6.140;2023-02-18T06:34:27;96390.84;;;7.02;81.26
21838;BME280;11081;45.946;6.140;2023-02-18T06:36:55;96386.94;;;7.06;81.51
21838;BME280;11081;45.946;6.140;2023-02-18T06:39:25;96390.16;;;7.16;80.62
21838;BME280;11081;45.946;6.140;2023-02-18T06:41:53;96388.84;;;7.20;80.85
21838;BME280;11081;45.946;6.140;2023-02-18T06:44:21;96388.50;;;7.23;80.56
21838;BME280;11081;45.946;6.140;2023-02-18T06:46:49;96385.28;;;7.21;80.97
21838;BME280;11081;45.946;6.140;2023-02-18T06:49:18;96386.88;;;7.22;81.35
21838;BME280;11081;45.946;6.140;2023-02-18T06:51:46;96392.41;;;7.19;81.18
21838;BME280;11081;45.946;6.140;2023-02-18T06:54:14;96384.94;;;7.24;81.23
21838;BME280;11081;45.946;6.140;2023-02-18T06:56:42;96382.66;;;7.29;81.25
21838;BME280;11081;45.946;6.140;2023-02-18T06:59:10;96383.94;;;7.33;81.27
21838;BME280;11081;45.946;6.140;2023-02-18T07:01:39;96387.16;;;7.36;81.24
21838;BME280;11081;45.946;6.140;2023-02-18T07:04:07;96389.41;;;7.39;81.34
21838;BME280;11081;45.946;6.140;2023-02-18T07:06:37;96386.13;;;7.45;81.19
21838;BME280;11081;45.946;6.140;2023-02-18T07:09:05;96389.38;;;7.47;81.12
21838;BME280;11081;45.946;6.140;2023-02-18T07:11:33;96386.13;;;7.45;81.07
21838;BME280;11081;45.946;6.140;2023-02-18T07:14:01;96380.94;;;7.45;81.26
21838;BME280;11081;45.946;6.140;2023-02-18T07:16:29;96384.34;;;7.45;81.49
21838;BME280;11081;45.946;6.140;2023-02-18T07:18:57;96380.13;;;7.44;81.13
21838;BME280;11081;45.946;6.140;2023-02-18T07:21:25;96387.75;;;7.46;81.32
21838;BME280;11081;45.946;6.140;2023-02-18T07:23:54;96387.75;;;7.46;81.26
21838;BME280;11081;45.946;6.140;2023-02-18T07:26:22;96388.06;;;7.51;81.20
21838;BME280;11081;45.946;6.140;2023-02-18T07:28:50;96384.50;;;7.52;81.22
21838;BME280;11081;45.946;6.140;2023-02-18T07:31:18;96377.63;;;7.59;81.17
21838;BME280;11081;45.946;6.140;2023-02-18T07:33:46;96383.41;;;7.69;81.15
21838;BME280;11081;45.946;6.140;2023-02-18T07:36:14;96391.16;;;7.77;81.28
21838;BME280;11081;45.946;6.140;2023-02-18T07:38:42;96383.88;;;7.73;81.35
21838;BME280;11081;45.946;6.140;2023-02-18T07:41:16;96382.41;;;7.70;81.95
21838;BME280;11081;45.946;6.140;2023-02-18T07:43:45;96379.16;;;7.76;81.71
21838;BME280;11081;45.946;6.140;2023-02-18T07:46:13;96385.63;;;7.80;81.71
21838;BME280;11081;45.946;6.140;2023-02-18T07:48:41;96389.53;;;7.76;81.47
21838;BME280;11081;45.946;6.140;2023-02-18T07:51:10;96390.34;;;7.77;81.41
21838;BME280;11081;45.946;6.140;2023-02-18T07:53:39;96386.59;;;7.79;81.13
21838;BME280;11081;45.946;6.140;2023-02-18T07:56:07;96388.50;;;7.85;80.82
21838;BME280;11081;45.946;6.140;2023-02-18T07:58:37;96388.50;;;7.85;80.90
21838;BME280;11081;45.946;6.140;2023-02-18T08:01:06;96393.59;;;7.79;80.86
21838;BME280;11081;45.946;6.140;2023-02-18T08:03:35;96389.66;;;7.83;81.33
21838;BME280;11081;45.946;6.140;2023-02-18T08:06:04;96383.09;;;7.72;82.14
21838;BME280;11081;45.946;6.140;2023-02-18T08:08:33;96385.97;;;7.77;82.62
21838;BME280;11081;45.946;6.140;2023-02-18T08:11:03;96396.72;;;7.74;82.63
21838;BME280;11081;45.946;6.140;2023-02-18T08:13:46;96399.25;;;7.82;82.34
21838;BME280;11081;45.946;6.140;2023-02-18T08:16:15;96391.06;;;7.93;81.81
21838;BME280;11081;45.946;6.140;2023-02-18T08:18:43;96397.88;;;7.94;82.17
21838;BME280;11081;45.946;6.140;2023-02-18T08:21:13;96392.69;;;7.94;82.57
21838;BME280;11081;45.946;6.140;2023-02-18T08:23:41;96398.22;;;7.91;83.11
21838;BME280;11081;45.946;6.140;2023-02-18T08:26:10;96400.75;;;8.00;83.14
21838;BME280;11081;45.946;6.140;2023-02-18T08:28:42;96405.22;;;8.14;81.64
21838;BME280;11081;45.946;6.140;2023-02-18T08:31:18;96402.25;;;8.17;81.32
21838;BME280;11081;45.946;6.140;2023-02-18T08:33:47;96411.63;;;8.26;80.39
21838;BME280;11081;45.946;6.140;2023-02-18T08:36:15;96407.66;;;8.30;80.02
21838;BME280;11081;45.946;6.140;2023-02-18T08:38:43;96404.91;;;8.32;79.74
21838;BME280;11081;45.946;6.140;2023-02-18T08:41:12;96403.78;;;8.34;79.50
21838;BME280;11081;45.946;6.140;2023-02-18T08:43:41;96405.41;;;8.35;79.71
21838;BME280;11081;45.946;6.140;2023-02-18T08:46:09;96412.69;;;8.40;78.85
21838;BME280;11081;45.946;6.140;2023-02-18T08:48:44;96416.38;;;8.45;78.98
21838;BME280;11081;45.946;6.140;2023-02-18T08:51:13;96414.97;;;8.58;79.00
21838;BME280;11081;45.946;6.140;2023-02-18T08:53:42;96416.09;;;8.78;77.79
21838;BME280;11081;45.946;6.140;2023-02-18T08:56:12;96410.25;;;8.91;77.58
21838;BME280;11081;45.946;6.140;2023-02-18T08:58:41;96412.31;;;8.95;77.77
21838;BME280;11081;45.946;6.140;2023-02-18T09:01:10;96413.22;;;9.02;77.44
21838;BME280;11081;45.946;6.140;2023-02-18T09:03:39;96412.13;;;9.11;78.27
21838;BME280;11081;45.946;6.140;2023-02-18T09:06:08;96417.53;;;9.25;76.78
21838;BME280;11081;45.946;6.140;2023-02-18T09:08:36;96413.22;;;9.32;77.69
21838;BME280;11081;45.946;6.140;2023-02-18T09:11:04;96417.72;;;9.38;76.31
21838;BME280;11081;45.946;6.140;2023-02-18T09:13:34;96418.34;;;9.40;75.76
21838;BME280;11081;45.946;6.140;2023-02-18T09:16:03;96420.22;;;9.46;75.43
21838;BME280;11081;45.946;6.140;2023-02-18T09:18:32;96421.09;;;9.53;75.70
21838;BME280;11081;45.946;6.140;2023-02-18T09:21:01;96417.25;;;9.49;74.94
21838;BME280;11081;45.946;6.140;2023-02-18T09:23:32;96429.38;;;9.42;74.76
21838;BME280;11081;45.946;6.140;2023-02-18T09:26:03;96426.84;;;9.48;74.50
21838;BME280;11081;45.946;6.140;2023-02-18T09:28:32;96425.94;;;9.56;73.90
21838;BME280;11081;45.946;6.140;2023-02-18T09:31:03;96432.94;;;9.70;73.92
21838;BME280;11081;45.946;6.140;2023-02-18T09:33:34;96424.03;;;9.80;73.56
21838;BME280;11081;45.946;6.140;2023-02-18T09:36:03;96436.31;;;9.86;73.17
21838;BME280;11081;45.946;6.140;2023-02-18T09:38:33;96434.97;;;9.90;74.17
21838;BME280;11081;45.946;6.140;2023-02-18T09:41:04;96428.38;;;9.94;73.69
21838;BME280;11081;45.946;6.140;2023-02-18T09:43:35;96430.09;;;10.01;72.89
21838;BME280;11081;45.946;6.140;2023-02-18T09:46:16;96423.69;;;10.04;73.39
21838;BME280;11081;45.946;6.140;2023-02-18T09:48:47;96428.53;;;10.07;73.11
21838;BME280;11081;45.946;6.140;2023-02-18T09:51:16;96424.69;;;10.03;73.01
21838;BME280;11081;45.946;6.140;2023-02-18T09:53:46;96421.78;;;9.98;74.09
21838;BME280;11081;45.946;6.140;2023-02-18T09:56:15;96418.84;;;10.01;73.20
21838;BME280;11081;45.946;6.140;2023-02-18T09:58:46;96422.06;;;10.03;73.80
21838;BME280;11081;45.946;6.140;2023-02-18T10:01:21;96417.56;;;9.97;73.72
21838;BME280;11081;45.946;6.140;2023-02-18T10:03:52;96419.28;;;10.04;73.37
21838;BME280;11081;45.946;6.140;2023-02-18T10:06:24;96411.88;;;10.08;72.68
21838;BME280;11081;45.946;6.140;2023-02-18T10:08:54;96408.91;;;10.11;73.43
21838;BME280;11081;45.946;6.140;2023-02-18T10:11:28;96405.03;;;10.22;73.65
21838;BME280;11081;45.946;6.140;2023-02-18T10:13:57;96407.31;;;10.31;73.04
21838;BME280;11081;45.946;6.140;2023-02-18T10:16:26;96400.59;;;10.44;71.82
21838;BME280;11081;45.946;6.140;2023-02-18T10:18:56;96396.84;;;10.53;72.08
21838;BME280;11081;45.946;6.140;2023-02-18T10:21:28;96392.41;;;10.47;72.93
21838;BME280;11081;45.946;6.140;2023-02-18T10:24:03;96390.78;;;10.46;72.36
21838;BME280;11081;45.946;6.140;2023-02-18T10:26:33;96383.94;;;10.45;74.71
21838;BME280;11081;45.946;6.140;2023-02-18T10:29:03;96392.41;;;10.47;73.90
21838;BME280;11081;45.946;6.140;2023-02-18T10:31:34;96384.81;;;10.52;74.68
21838;BME280;11081;45.946;6.140;2023-02-18T10:34:10;96386.91;;;10.63;74.42
21838;BME280;11081;45.946;6.140;2023-02-18T10:36:43;96376.50;;;10.69;73.70
21838;BME280;11081;45.946;6.140;2023-02-18T10:39:30;96376.16;;;10.79;74.12
21838;BME280;11081;45.946;6.140;2023-02-18T10:42:10;96380.25;;;10.88;73.55
21838;BME280;11081;45.946;6.140;2023-02-18T10:44:48;96376.25;;;10.92;73.19
21838;BME280;11081;45.946;6.140;2023-02-18T10:47:26;96375.63;;;10.90;73.86
21838;BME280;11081;45.946;6.140;2023-02-18T10:50:04;96380.69;;;10.98;73.55
21838;BME280;11081;45.946;6.140;2023-02-18T10:52:39;96375.47;;;10.98;73.86
21838;BME280;11081;45.946;6.140;2023-02-18T10:55:11;96379.09;;;10.97;74.49
21838;BME280;11081;45.946;6.140;2023-02-18T10:57:47;96375.72;;;11.04;74.15
21838;BME280;11081;45.946;6.140;2023-02-18T11:00:18;96373.78;;;11.19;73.51
21838;BME280;11081;45.946;6.140;2023-02-18T11:03:01;96370.84;;;11.35;73.29
21838;BME280;11081;45.946;6.140;2023-02-18T11:05:34;96363.22;;;11.40;72.39
21838;BME280;11081;45.946;6.140;2023-02-18T11:08:06;96373.44;;;11.35;73.48
21838;BME280;11081;45.946;6.140;2023-02-18T11:10:40;96372.84;;;11.33;74.09
21838;BME280;11081;45.946;6.140;2023-02-18T11:13:12;96379.69;;;11.34;73.93
21838;BME280;11081;45.946;6.140;2023-02-18T11:15:54;96371.72;;;11.55;73.81
21838;BME280;11081;45.946;6.140;2023-02-18T11:18:36;96367.56;;;11.68;72.28
21838;BME280;11081;45.946;6.140;2023-02-18T11:21:28;96361.72;;;11.72;72.12
21838;BME280;11081;45.946;6.140;2023-02-18T11:24:06;96363.75;;;11.77;72.74
21838;BME280;11081;45.946;6.140;2023-02-18T11:26:37;96360.97;;;11.85;72.49
21838;BME280;11081;45.946;6.140;2023-02-18T11:29:09;96352.09;;;11.79;73.61
21838;BME280;11081;45.946;6.140;2023-02-18T11:31:42;96348.50;;;11.87;73.63
21838;BME280;11081;45.946;6.140;2023-02-18T11:34:17;96349.72;;;11.91;73.70
21838;BME280;11081;45.946;6.140;2023-02-18T11:36:46;96346.50;;;12.02;73.75
21838;BME280;11081;45.946;6.140;2023-02-18T11:39:18;96347.94;;;12.11;73.24
21838;BME280;11081;45.946;6.140;2023-02-18T11:41:53;96350.97;;;12.21;72.88
21838;BME280;11081;45.946;6.140;2023-02-18T11:44:26;96345.31;;;12.25;72.70
21838;BME280;11081;45.946;6.140;2023-02-18T11:46:57;96346.75;;;12.34;72.53
21838;BME280;11081;45.946;6.140;2023-02-18T11:49:26;96346.53;;;12.42;71.93
21838;BME280;11081;45.946;6.140;2023-02-18T11:52:03;96345.09;;;12.46;72.66
21838;BME280;11081;45.946;6.140;2023-02-18T11:54:31;96335.66;;;12.45;72.46
21838;BME280;11081;45.946;6.140;2023-02-18T11:57:04;96339.47;;;12.49;72.43
21838;BME280;11081;45.946;6.140;2023-02-18T11:59:36;96336.06;;;12.55;72.45
21838;BME280;11081;45.946;6.140;2023-02-18T12:02:21;96328.00;;;12.50;72.97
21838;BME280;11081;45.946;6.140;2023-02-18T12:04:57;96329.63;;;12.51;73.27
21838;BME280;11081;45.946;6.140;2023-02-18T12:07:30;96320.34;;;12.55;72.36
21838;BME280;11081;45.946;6.140;2023-02-18T12:10:04;96323.53;;;12.64;72.58
21838;BME280;11081;45.946;6.140;2023-02-18T12:12:43;96314.69;;;12.71;71.53
21838;BME280;11081;45.946;6.140;2023-02-18T12:15:16;96318.28;;;12.83;71.03
21838;BME280;11081;45.946;6.140;2023-02-18T12:17:56;96313.81;;;12.91;71.33
21838;BME280;11081;45.946;6.140;2023-02-18T12:20:45;96308.56;;;12.91;72.02
21838;BME280;11081;45.946;6.140;2023-02-18T12:23:23;96307.72;;;13.03;71.04
21838;BME280;11081;45.946;6.140;2023-02-18T12:25:59;96297.22;;;13.10;70.68
21838;BME280;11081;45.946;6.140;2023-02-18T12:28:47;96295.00;;;13.20;71.47
21838;BME280;11081;45.946;6.140;2023-02-18T12:31:30;96287.16;;;13.07;70.61
21838;BME280;11081;45.946;6.140;2023-02-18T12:34:16;96290.56;;;13.14;70.63
21838;BME280;11081;45.946;6.140;2023-02-18T12:36:56;96290.38;;;13.09;70.34
21838;BME280;11081;45.946;6.140;2023-02-18T12:39:34;96281.47;;;13.23;72.24
21838;BME280;11081;45.946;6.140;2023-02-18T12:42:24;96280.63;;;13.29;71.50
21838;BME280;11081;45.946;6.140;2023-02-18T12:45:12;96278.97;;;13.41;71.05
21838;BME280;11081;45.946;6.140;2023-02-18T12:48:06;96272.66;;;13.49;69.60
21838;BME280;11081;45.946;6.140;2023-02-18T12:51:01;96269.66;;;13.46;69.01
21838;BME280;11081;45.946;6.140;2023-02-18T12:53:59;96268.81;;;13.52;69.69
21838;BME280;11081;45.946;6.140;2023-02-18T12:59:38;96268.81;;;13.52;70.58
21838;BME280;11081;45.946;6.140;2023-02-18T13:02:32;96259.09;;;13.59;69.67
21838;BME280;11081;45.946;6.140;2023-02-18T13:05:11;96255.47;;;13.53;69.87
21838;BME280;11081;45.946;6.140;2023-02-18T13:07:53;96251.81;;;13.61;69.95
21838;BME280;11081;45.946;6.140;2023-02-18T13:10:37;96246.16;;;13.64;69.21
21838;BME280;11081;45.946;6.140;2023-02-18T13:13:10;96246.47;;;13.74;69.31
21838;BME280;11081;45.946;6.140;2023-02-18T13:15:42;96244.88;;;13.73;68.63
21838;BME280;11081;45.946;6.140;2023-02-18T13:18:15;96236.47;;;13.64;68.46
21838;BME280;11081;45.946;6.140;2023-02-18T13:20:48;96235.72;;;13.51;68.69
21838;BME280;11081;45.946;6.140;2023-02-18T13:23:19;96238.13;;;13.59;69.72
21838;BME280;11081;45.946;6.140;2023-02-18T13:25:51;96231.81;;;13.66;68.65
21838;BME280;11081;45.946;6.140;2023-02-18T13:28:28;96229.91;;;13.80;67.93
21838;BME280;11081;45.946;6.140;2023-02-18T13:31:18;96216.06;;;13.91;67.57
21838;BME280;11081;45.946;6.140;2023-02-18T13:33:51;96207.66;;;13.83;68.02
21838;BME280;11081;45.946;6.140;2023-02-18T13:36:31;96203.97;;;13.90;68.03
21838;BME280;11081;45.946;6.140;2023-02-18T13:39:04;96200.78;;;14.07;68.40
21838;BME280;11081;45.946;6.140;2023-02-18T13:41:35;96197.28;;;14.13;68.11